Terminal Aerodrome Forecast
Issued by NWS

Home | Current Version | Previous Version | Text Only | Print | Product List | Glossary On
Versions: 1 2 3 4 5 6 7 8 9 10 11 12 13 14 15 16 17
000
FTUS43 KSGF 232300
TAFJLN
TAF
KJLN 232336Z 2400/2424 29005KT P6SM SKC
     FM240200 21006KT P6SM BKN130
     FM241200 28006KT P6SM SCT006
     FM241600 26008KT P6SM SKC=

USA.gov is the U.S. government's official web portal to all federal, state and local government web resources and services.